Time;durP1;ratioP1;P1;durP2;ratioP2;P2;SDS_P1;SDS_P2;PMS_P1;PMS_P2;Temp;Humidity;BMP_temperature;BMP_pressure;BME280_temperature;BME280_humidity;BME280_pressure;Samples;Min_cycle;Max_cycle;Signal;HPM_P1;HPM_P2
2022/10/30 00:00:43;;;;;;;2.95;2.63;;;;;;;;;;5097569;28;20218;-64
2022/10/30 00:03:13;;;;;;;3.10;2.85;;;;;;;;;;5097365;28;20276;-65
2022/10/30 00:05:43;;;;;;;2.97;2.63;;;;;;;;;;5097823;28;20567;-64
2022/10/30 00:08:11;;;;;;;3.13;2.83;;;;;;;;;;5097333;28;20586;-63
2022/10/30 00:10:40;;;;;;;2.80;2.58;;;;;;;;;;5098116;28;20588;-63
2022/10/30 00:13:08;;;;;;;2.67;2.47;;;;;;;;;;5097535;28;20211;-64
2022/10/30 00:15:36;;;;;;;3.13;2.63;;;;;;;;;;5097452;28;20208;-64
2022/10/30 00:18:04;;;;;;;2.60;2.35;;;;;;;;;;5097517;28;20204;-64
2022/10/30 00:20:33;;;;;;;2.85;2.55;;;;;;;;;;5097361;28;20203;-64
2022/10/30 00:23:01;;;;;;;2.67;2.47;;;;;;;;;;5097408;28;20265;-64
2022/10/30 00:25:29;;;;;;;2.83;2.63;;;;;;;;;;5097069;28;20296;-64
2022/10/30 00:27:56;;;;;;;2.55;2.33;;;;;;;;;;5097159;28;20214;-64
2022/10/30 00:30:24;;;;;;;2.60;2.33;;;;;;;;;;5100052;28;20204;-63
2022/10/30 00:32:52;;;;;;;3.10;2.30;;;;;;;;;;5101785;28;20214;-64
2022/10/30 00:35:20;;;;;;;2.60;2.40;;;;;;;;;;5101460;28;20199;-64
2022/10/30 00:37:49;;;;;;;2.60;2.40;;;;;;;;;;5101804;28;20268;-64
2022/10/30 00:40:18;;;;;;;3.15;2.25;;;;;;;;;;5101148;28;20203;-64
2022/10/30 00:42:46;;;;;;;2.40;2.20;;;;;;;;;;5100803;28;20587;-64
2022/10/30 00:45:14;;;;;;;2.50;2.30;;;;;;;;;;5100670;28;20226;-65
2022/10/30 00:47:43;;;;;;;2.38;2.17;;;;;;;;;;5101132;28;20200;-66
2022/10/30 00:50:14;;;;;;;2.17;1.92;;;;;;;;;;5101468;28;20503;-64
2022/10/30 00:52:43;;;;;;;2.65;2.45;;;;;;;;;;5100900;28;20211;-65
2022/10/30 00:55:20;;;;;;;2.63;2.38;;;;;;;;;;5101088;28;20192;-65
2022/10/30 00:57:49;;;;;;;2.40;2.20;;;;;;;;;;5101130;28;20208;-65
2022/10/30 01:00:18;;;;;;;2.47;2.17;;;;;;;;;;5100937;28;20207;-66
2022/10/30 01:02:46;;;;;;;1.95;1.85;;;;;;;;;;5101145;28;20203;-65
2022/10/30 01:05:15;;;;;;;2.10;2.00;;;;;;;;;;5100855;28;20273;-65
2022/10/30 01:07:43;;;;;;;2.33;2.13;;;;;;;;;;5101171;28;20203;-65
2022/10/30 01:10:13;;;;;;;2.30;2.10;;;;;;;;;;5101193;28;20211;-65
2022/10/30 01:12:42;;;;;;;2.03;1.90;;;;;;;;;;5101157;28;20543;-65
2022/10/30 01:15:10;;;;;;;2.50;2.30;;;;;;;;;;5100438;28;20257;-65
2022/10/30 01:17:57;;;;;;;2.33;2.13;;;;;;;;;;5100877;28;20627;-65
2022/10/30 01:20:32;;;;;;;2.40;2.20;;;;;;;;;;5100806;28;20265;-65
2022/10/30 01:23:03;;;;;;;1.75;1.65;;;;;;;;;;5100864;28;20310;-64
2022/10/30 01:25:39;;;;;;;2.22;2.03;;;;;;;;;;5100979;28;20231;-65
2022/10/30 01:28:15;;;;;;;2.33;2.13;;;;;;;;;;5101071;28;20328;-65
2022/10/30 01:30:48;;;;;;;2.10;2.00;;;;;;;;;;5100632;28;20280;-66
2022/10/30 01:33:23;;;;;;;2.13;1.92;;;;;;;;;;5100779;28;20469;-66
2022/10/30 01:35:55;;;;;;;2.35;2.15;;;;;;;;;;5100812;28;20199;-66
2022/10/30 01:38:25;;;;;;;2.13;2.00;;;;;;;;;;5100520;28;20256;-66
2022/10/30 01:40:54;;;;;;;2.03;1.92;;;;;;;;;;5099990;28;20268;-65
2022/10/30 01:43:22;;;;;;;2.17;1.98;;;;;;;;;;5100172;28;20211;-64
2022/10/30 01:46:11;;;;;;;2.00;1.90;;;;;;;;;;5100241;28;20610;-64
2022/10/30 01:48:48;;;;;;;2.20;2.10;;;;;;;;;;5100614;28;20196;-65
2022/10/30 01:51:21;;;;;;;2.17;1.95;;;;;;;;;;5100196;28;20211;-64
2022/10/30 01:53:53;;;;;;;2.10;1.90;;;;;;;;;;5100108;28;20204;-64
2022/10/30 01:56:29;;;;;;;2.38;1.95;;;;;;;;;;5099361;28;20221;-64
2022/10/30 01:59:02;;;;;;;2.20;2.00;;;;;;;;;;5100093;28;20210;-65
2022/10/30 02:01:32;;;;;;;2.00;1.90;;;;;;;;;;5100124;28;20211;-65
2022/10/30 02:03:59;;;;;;;2.17;2.03;;;;;;;;;;5099890;28;20207;-65
2022/10/30 02:06:27;;;;;;;2.05;1.95;;;;;;;;;;5100166;28;20229;-64
2022/10/30 02:08:56;;;;;;;2.00;1.90;;;;;;;;;;5100035;28;20254;-64
2022/10/30 02:11:26;;;;;;;2.40;2.20;;;;;;;;;;5099571;28;20613;-65
2022/10/30 02:13:55;;;;;;;1.95;1.85;;;;;;;;;;5098696;28;20276;-64
2022/10/30 02:16:23;;;;;;;2.28;2.08;;;;;;;;;;5099180;28;20232;-64
2022/10/30 02:18:51;;;;;;;2.20;2.00;;;;;;;;;;5099851;28;20203;-64
2022/10/30 02:21:20;;;;;;;2.15;2.00;;;;;;;;;;5099661;28;20205;-64
2022/10/30 02:23:48;;;;;;;2.35;2.15;;;;;;;;;;5099766;28;20606;-64
2022/10/30 02:26:16;;;;;;;2.17;2.05;;;;;;;;;;5099840;28;20238;-64
2022/10/30 02:28:43;;;;;;;2.13;2.00;;;;;;;;;;5099370;28;20203;-65
2022/10/30 02:31:11;;;;;;;1.70;1.60;;;;;;;;;;5099320;28;20282;-64
2022/10/30 02:33:39;;;;;;;2.20;2.00;;;;;;;;;;5099076;28;20210;-64
2022/10/30 02:36:07;;;;;;;2.45;2.20;;;;;;;;;;5099261;28;20230;-64
2022/10/30 02:38:36;;;;;;;2.92;2.20;;;;;;;;;;5099249;28;20203;-64
2022/10/30 02:41:04;;;;;;;2.20;2.10;;;;;;;;;;5098688;28;20254;-64
2022/10/30 02:43:32;;;;;;;2.60;2.40;;;;;;;;;;5099373;28;20204;-64
2022/10/30 02:46:00;;;;;;;2.10;2.00;;;;;;;;;;5099304;28;20623;-65
2022/10/30 02:48:27;;;;;;;2.40;2.20;;;;;;;;;;5099021;28;20204;-64
2022/10/30 02:50:59;;;;;;;2.60;2.40;;;;;;;;;;5098978;28;20596;-64
2022/10/30 02:53:27;;;;;;;2.55;2.30;;;;;;;;;;5098540;28;20203;-64
2022/10/30 02:55:56;;;;;;;2.50;2.30;;;;;;;;;;5098560;28;20543;-64
2022/10/30 02:58:24;;;;;;;2.50;2.30;;;;;;;;;;5098945;28;20235;-64
2022/10/30 03:00:52;;;;;;;2.40;2.20;;;;;;;;;;5099059;28;20203;-64
2022/10/30 03:03:19;;;;;;;2.42;2.22;;;;;;;;;;5099035;28;20247;-64
2022/10/30 03:05:47;;;;;;;2.42;2.22;;;;;;;;;;5098813;28;20665;-64
2022/10/30 03:08:15;;;;;;;2.60;2.40;;;;;;;;;;5098650;28;20207;-65
2022/10/30 03:10:43;;;;;;;2.42;2.20;;;;;;;;;;5098863;28;20200;-64
2022/10/30 03:13:12;;;;;;;2.45;2.25;;;;;;;;;;5098508;28;20207;-65
2022/10/30 03:15:40;;;;;;;2.78;2.40;;;;;;;;;;5097957;28;20648;-64
2022/10/30 03:18:08;;;;;;;2.35;2.15;;;;;;;;;;5098467;28;20207;-64
2022/10/30 03:20:35;;;;;;;2.60;2.40;;;;;;;;;;5098395;28;20298;-64
2022/10/30 03:23:03;;;;;;;2.88;2.63;;;;;;;;;;5098188;28;20204;-65
2022/10/30 03:25:31;;;;;;;2.58;2.38;;;;;;;;;;5098039;28;20242;-64
2022/10/30 03:27:59;;;;;;;2.45;2.25;;;;;;;;;;5098421;28;20203;-64
2022/10/30 03:30:28;;;;;;;2.40;2.20;;;;;;;;;;5098473;28;20268;-64
2022/10/30 03:32:55;;;;;;;2.50;2.30;;;;;;;;;;5098101;28;20285;-64
2022/10/30 03:35:23;;;;;;;3.03;2.33;;;;;;;;;;5098082;28;20286;-64
2022/10/30 03:37:51;;;;;;;2.60;2.40;;;;;;;;;;5098350;28;20254;-64
2022/10/30 03:40:18;;;;;;;2.88;2.35;;;;;;;;;;5098339;28;20203;-64
2022/10/30 03:42:46;;;;;;;2.35;2.15;;;;;;;;;;5098316;28;20210;-64
2022/10/30 03:45:14;;;;;;;2.60;2.40;;;;;;;;;;5097689;28;20228;-65
2022/10/30 03:47:43;;;;;;;2.60;2.40;;;;;;;;;;5098221;28;20203;-64
2022/10/30 03:50:12;;;;;;;2.63;2.40;;;;;;;;;;5098292;28;20204;-64
2022/10/30 03:52:40;;;;;;;2.40;2.20;;;;;;;;;;5098208;28;20290;-64
2022/10/30 03:55:08;;;;;;;3.15;2.40;;;;;;;;;;5098343;28;20257;-64
2022/10/30 03:57:37;;;;;;;2.42;2.22;;;;;;;;;;5098057;28;20222;-64
2022/10/30 04:00:05;;;;;;;2.90;2.30;;;;;;;;;;5098307;28;20605;-65
2022/10/30 04:02:33;;;;;;;2.53;2.35;;;;;;;;;;5097952;28;20203;-64
2022/10/30 04:05:02;;;;;;;3.55;2.50;;;;;;;;;;5097652;28;20234;-66
2022/10/30 04:07:30;;;;;;;2.40;2.20;;;;;;;;;;5097672;28;20243;-64
2022/10/30 04:09:58;;;;;;;2.47;2.15;;;;;;;;;;5097930;28;20239;-65
2022/10/30 04:12:26;;;;;;;2.60;2.40;;;;;;;;;;5097962;28;20215;-64
2022/10/30 04:14:55;;;;;;;2.60;2.40;;;;;;;;;;5097735;28;20564;-64
2022/10/30 04:17:23;;;;;;;2.78;2.30;;;;;;;;;;5097745;28;20540;-64
2022/10/30 04:19:51;;;;;;;3.20;2.60;;;;;;;;;;5097733;28;20218;-64
2022/10/30 04:22:20;;;;;;;2.70;2.50;;;;;;;;;;5097978;28;20218;-65
2022/10/30 04:24:49;;;;;;;3.10;2.38;;;;;;;;;;5097517;28;20265;-64
2022/10/30 04:27:17;;;;;;;2.80;2.60;;;;;;;;;;5097729;28;20211;-64
2022/10/30 04:29:45;;;;;;;2.55;2.35;;;;;;;;;;5097379;28;20226;-64
2022/10/30 04:32:13;;;;;;;2.50;2.30;;;;;;;;;;5097530;28;20284;-65
2022/10/30 04:34:41;;;;;;;2.58;2.20;;;;;;;;;;5097898;28;20204;-65
2022/10/30 04:37:09;;;;;;;2.70;2.35;;;;;;;;;;5097145;28;20541;-64
2022/10/30 04:39:38;;;;;;;2.45;2.25;;;;;;;;;;5097348;28;20204;-64
2022/10/30 04:42:06;;;;;;;2.50;2.30;;;;;;;;;;5097387;28;20543;-64
2022/10/30 04:44:34;;;;;;;2.60;2.40;;;;;;;;;;5097059;28;20568;-64
2022/10/30 04:47:02;;;;;;;2.38;2.17;;;;;;;;;;5096672;28;20227;-64
2022/10/30 04:49:30;;;;;;;3.28;2.42;;;;;;;;;;5097432;28;20203;-66
2022/10/30 04:51:58;;;;;;;2.40;2.20;;;;;;;;;;5097239;28;20294;-64
2022/10/30 04:54:27;;;;;;;3.45;2.67;;;;;;;;;;5097464;28;20235;-64
2022/10/30 04:56:57;;;;;;;2.92;2.72;;;;;;;;;;5097211;28;20199;-65
2022/10/30 04:59:25;;;;;;;2.40;2.20;;;;;;;;;;5097590;28;20207;-64
2022/10/30 05:01:52;;;;;;;2.45;2.15;;;;;;;;;;5097034;28;20207;-64
2022/10/30 05:04:20;;;;;;;2.33;2.13;;;;;;;;;;5097581;28;20204;-64
2022/10/30 05:06:47;;;;;;;2.42;2.22;;;;;;;;;;5096949;28;20318;-64
2022/10/30 05:09:14;;;;;;;2.45;2.25;;;;;;;;;;5097239;28;20247;-64
2022/10/30 05:11:42;;;;;;;2.33;2.13;;;;;;;;;;5097313;28;20557;-64
2022/10/30 05:14:11;;;;;;;2.63;2.42;;;;;;;;;;5097124;28;20298;-64
2022/10/30 05:16:38;;;;;;;2.50;2.30;;;;;;;;;;5099738;28;20239;-64
2022/10/30 05:19:06;;;;;;;2.58;2.38;;;;;;;;;;5100937;28;20268;-64
2022/10/30 05:21:33;;;;;;;2.05;1.95;;;;;;;;;;5100920;28;20246;-64
2022/10/30 05:24:02;;;;;;;2.60;2.35;;;;;;;;;;5100843;28;20265;-64
2022/10/30 05:26:29;;;;;;;2.33;2.13;;;;;;;;;;5100324;28;20262;-64
2022/10/30 05:28:57;;;;;;;2.35;2.17;;;;;;;;;;5100408;28;20303;-64
2022/10/30 05:31:26;;;;;;;2.30;2.10;;;;;;;;;;5101051;28;20261;-64
2022/10/30 05:33:54;;;;;;;2.40;2.20;;;;;;;;;;5100860;28;20247;-64
2022/10/30 05:36:21;;;;;;;2.35;2.15;;;;;;;;;;5100681;28;20230;-65
2022/10/30 05:38:49;;;;;;;2.40;2.20;;;;;;;;;;5100497;28;20225;-64
2022/10/30 05:41:16;;;;;;;2.50;2.30;;;;;;;;;;5100470;28;20329;-64
2022/10/30 05:43:44;;;;;;;2.47;2.28;;;;;;;;;;5100581;28;20235;-64
2022/10/30 05:46:11;;;;;;;2.45;2.25;;;;;;;;;;5100297;28;20227;-65
2022/10/30 05:48:40;;;;;;;2.30;1.95;;;;;;;;;;5100456;28;20315;-64
2022/10/30 05:51:08;;;;;;;2.50;2.30;;;;;;;;;;5100706;28;20235;-64
2022/10/30 05:53:35;;;;;;;2.50;2.30;;;;;;;;;;5100360;28;20203;-65
2022/10/30 05:56:03;;;;;;;2.38;2.17;;;;;;;;;;5099997;28;20253;-65
2022/10/30 05:58:30;;;;;;;2.47;2.28;;;;;;;;;;5100205;28;20261;-64
2022/10/30 06:00:58;;;;;;;2.40;2.20;;;;;;;;;;5100022;28;20568;-64
2022/10/30 06:03:25;;;;;;;2.55;2.35;;;;;;;;;;5099900;28;20265;-65
2022/10/30 06:05:54;;;;;;;2.33;2.20;;;;;;;;;;5099624;28;20231;-64
2022/10/30 06:08:22;;;;;;;3.47;2.30;;;;;;;;;;5100027;28;20253;-64
2022/10/30 06:10:49;;;;;;;2.15;1.95;;;;;;;;;;5099977;28;20306;-64
2022/10/30 06:13:17;;;;;;;2.13;2.03;;;;;;;;;;5100263;28;20633;-64
2022/10/30 06:15:46;;;;;;;2.47;2.28;;;;;;;;;;5099564;28;20294;-64
2022/10/30 06:18:13;;;;;;;2.47;2.28;;;;;;;;;;5099738;28;20301;-64
2022/10/30 06:20:40;;;;;;;2.20;2.03;;;;;;;;;;5099685;28;20218;-64
2022/10/30 06:23:11;;;;;;;2.63;2.42;;;;;;;;;;5099672;28;20242;-65
2022/10/30 06:25:38;;;;;;;2.22;2.03;;;;;;;;;;5100038;28;20324;-64
2022/10/30 06:28:06;;;;;;;2.40;2.20;;;;;;;;;;5098510;28;20246;-65
2022/10/30 06:30:33;;;;;;;2.28;2.08;;;;;;;;;;5099652;28;20272;-64
2022/10/30 06:33:02;;;;;;;2.30;2.10;;;;;;;;;;5099675;28;20590;-64
2022/10/30 06:35:30;;;;;;;2.13;2.03;;;;;;;;;;5099053;28;20298;-65
2022/10/30 06:37:59;;;;;;;2.35;2.15;;;;;;;;;;5099351;28;20490;-64
2022/10/30 06:40:29;;;;;;;2.25;2.08;;;;;;;;;;5099026;28;20257;-64
2022/10/30 06:42:58;;;;;;;2.40;2.20;;;;;;;;;;5099096;28;20594;-64
2022/10/30 06:45:26;;;;;;;2.22;2.10;;;;;;;;;;5098326;28;20721;-65
2022/10/30 06:47:53;;;;;;;2.35;2.20;;;;;;;;;;5098493;28;20634;-65
2022/10/30 06:50:23;;;;;;;2.63;2.20;;;;;;;;;;5098529;28;20204;-64
2022/10/30 06:52:50;;;;;;;2.20;2.00;;;;;;;;;;5098547;28;20196;-64
2022/10/30 06:55:17;;;;;;;2.40;2.20;;;;;;;;;;5098366;28;20203;-65
2022/10/30 06:57:46;;;;;;;1.95;1.85;;;;;;;;;;5097299;28;20192;-65
2022/10/30 07:00:14;;;;;;;2.20;2.10;;;;;;;;;;5098117;28;20575;-64
2022/10/30 07:02:42;;;;;;;2.10;2.00;;;;;;;;;;5087104;28;20204;-64
2022/10/30 07:05:09;;;;;;;2.28;2.10;;;;;;;;;;5098906;28;20286;-65
2022/10/30 07:07:37;;;;;;;2.53;2.08;;;;;;;;;;5097853;28;20285;-64
2022/10/30 07:10:04;;;;;;;2.42;2.22;;;;;;;;;;5098442;28;20593;-64
2022/10/30 07:12:32;;;;;;;2.10;1.98;;;;;;;;;;5098056;28;20270;-64
2022/10/30 07:15:01;;;;;;;2.08;1.98;;;;;;;;;;5098628;28;20253;-64
2022/10/30 07:17:28;;;;;;;2.00;1.90;;;;;;;;;;5096690;28;20227;-64
2022/10/30 07:19:56;;;;;;;2.40;2.20;;;;;;;;;;5097905;28;20298;-65
2022/10/30 07:22:23;;;;;;;2.50;2.30;;;;;;;;;;5098071;28;20495;-64
2022/10/30 07:24:51;;;;;;;1.90;1.80;;;;;;;;;;5097824;28;20682;-64
2022/10/30 07:27:18;;;;;;;2.00;1.90;;;;;;;;;;5096940;28;20259;-64
2022/10/30 07:29:45;;;;;;;1.88;1.73;;;;;;;;;;5098108;28;20235;-64
2022/10/30 07:32:14;;;;;;;1.88;1.77;;;;;;;;;;5096813;28;20658;-64
2022/10/30 07:34:42;;;;;;;2.40;1.90;;;;;;;;;;5097788;28;20235;-64
2022/10/30 07:37:09;;;;;;;1.90;1.80;;;;;;;;;;5097133;28;20200;-64
2022/10/30 07:39:37;;;;;;;2.08;1.98;;;;;;;;;;5097456;28;20298;-64
2022/10/30 07:42:05;;;;;;;1.90;1.80;;;;;;;;;;5096415;28;20196;-64
2022/10/30 07:44:32;;;;;;;2.20;2.00;;;;;;;;;;5097957;28;20575;-64
2022/10/30 07:46:59;;;;;;;2.03;1.92;;;;;;;;;;5097502;28;20253;-64
2022/10/30 07:49:28;;;;;;;2.03;1.92;;;;;;;;;;5097064;28;20260;-65
2022/10/30 07:51:56;;;;;;;2.35;2.15;;;;;;;;;;5096449;28;20210;-64
2022/10/30 07:54:23;;;;;;;1.80;1.70;;;;;;;;;;5096516;28;20204;-64
2022/10/30 07:56:51;;;;;;;1.90;1.80;;;;;;;;;;5096817;28;20224;-65
2022/10/30 07:59:19;;;;;;;2.10;1.90;;;;;;;;;;5096660;28;20235;-64
2022/10/30 08:01:46;;;;;;;1.95;1.85;;;;;;;;;;5096570;28;20207;-64
2022/10/30 08:04:14;;;;;;;2.10;1.90;;;;;;;;;;5096834;28;20613;-64
2022/10/30 08:06:42;;;;;;;2.15;1.98;;;;;;;;;;5096335;28;20306;-64
2022/10/30 08:09:10;;;;;;;2.05;1.95;;;;;;;;;;5097645;28;20235;-65
2022/10/30 08:11:38;;;;;;;1.90;1.80;;;;;;;;;;5096275;28;20546;-65
2022/10/30 08:14:05;;;;;;;2.00;1.80;;;;;;;;;;5076854;28;20251;-65
2022/10/30 08:16:33;;;;;;;1.80;1.70;;;;;;;;;;5088304;28;20310;-65
2022/10/30 08:19:01;;;;;;;2.05;1.90;;;;;;;;;;5096608;28;20261;-64
2022/10/30 08:21:28;;;;;;;2.35;1.90;;;;;;;;;;5096326;28;20199;-65
2022/10/30 08:23:57;;;;;;;1.90;1.80;;;;;;;;;;5096772;28;20268;-65
2022/10/30 08:26:25;;;;;;;1.70;1.60;;;;;;;;;;5096232;28;20251;-65
2022/10/30 08:28:52;;;;;;;2.00;1.90;;;;;;;;;;5096318;28;20337;-65
2022/10/30 08:31:20;;;;;;;2.25;1.90;;;;;;;;;;5096300;28;20199;-65
2022/10/30 08:33:47;;;;;;;1.83;1.73;;;;;;;;;;5096957;28;20516;-65
2022/10/30 08:36:14;;;;;;;2.10;2.00;;;;;;;;;;5095938;28;20286;-64
2022/10/30 08:38:42;;;;;;;2.00;1.90;;;;;;;;;;5095506;28;20257;-64
2022/10/30 08:41:11;;;;;;;1.90;1.80;;;;;;;;;;5096217;28;20319;-64
2022/10/30 08:43:38;;;;;;;1.83;1.73;;;;;;;;;;5096520;28;20203;-64
2022/10/30 08:46:06;;;;;;;2.10;1.90;;;;;;;;;;5095764;28;20494;-64
2022/10/30 08:48:33;;;;;;;2.15;1.80;;;;;;;;;;5096174;28;20227;-65
2022/10/30 08:51:01;;;;;;;1.80;1.60;;;;;;;;;;5097320;28;20286;-65
2022/10/30 08:53:29;;;;;;;2.20;1.90;;;;;;;;;;5100187;28;20204;-64
2022/10/30 08:55:56;;;;;;;2.22;2.05;;;;;;;;;;5100251;28;20196;-65
2022/10/30 08:58:25;;;;;;;2.15;1.95;;;;;;;;;;5100264;28;20203;-65
2022/10/30 09:00:52;;;;;;;1.67;1.58;;;;;;;;;;5100396;28;20203;-65
2022/10/30 09:03:20;;;;;;;2.13;1.92;;;;;;;;;;5099918;28;20269;-64
2022/10/30 09:05:47;;;;;;;1.73;1.63;;;;;;;;;;5100172;28;20366;-65
2022/10/30 09:08:15;;;;;;;1.85;1.73;;;;;;;;;;5099876;28;20278;-64
2022/10/30 09:10:42;;;;;;;2.22;1.70;;;;;;;;;;5100339;28;20287;-64
2022/10/30 09:13:10;;;;;;;1.83;1.70;;;;;;;;;;5100134;28;20538;-64
2022/10/30 09:15:39;;;;;;;2.33;1.88;;;;;;;;;;5099925;28;20306;-64
2022/10/30 09:18:06;;;;;;;2.10;1.88;;;;;;;;;;5099952;28;20566;-64
2022/10/30 09:20:34;;;;;;;1.83;1.70;;;;;;;;;;5100326;28;20298;-65
2022/10/30 09:23:01;;;;;;;1.95;1.75;;;;;;;;;;5100504;28;20243;-65
2022/10/30 09:25:29;;;;;;;2.38;1.80;;;;;;;;;;5099826;28;20279;-65
2022/10/30 09:27:56;;;;;;;2.17;1.80;;;;;;;;;;5099810;28;20589;-64
2022/10/30 09:30:24;;;;;;;2.38;1.92;;;;;;;;;;5099984;28;20531;-64
2022/10/30 09:32:57;;;;;;;1.95;1.85;;;;;;;;;;5098842;28;20286;-64
2022/10/30 09:35:24;;;;;;;2.00;1.80;;;;;;;;;;5099000;28;20199;-65
2022/10/30 09:37:52;;;;;;;1.80;1.70;;;;;;;;;;5099018;28;20776;-64
2022/10/30 09:40:22;;;;;;;3.08;1.98;;;;;;;;;;5098469;28;20200;-65
2022/10/30 09:42:50;;;;;;;2.00;1.80;;;;;;;;;;5098668;28;20216;-65
2022/10/30 09:45:32;;;;;;;2.10;1.90;;;;;;;;;;5098525;28;20359;-65
2022/10/30 09:48:06;;;;;;;2.25;2.03;;;;;;;;;;5055011;28;20251;-65
2022/10/30 09:50:35;;;;;;;1.75;1.65;;;;;;;;;;5098982;28;20487;-65
2022/10/30 09:53:07;;;;;;;2.58;2.05;;;;;;;;;;5098706;28;20231;-65
2022/10/30 09:55:40;;;;;;;1.80;1.70;;;;;;;;;;5098414;28;20200;-65
2022/10/30 09:58:16;;;;;;;2.80;1.88;;;;;;;;;;5098859;28;20227;-65
2022/10/30 10:00:46;;;;;;;2.67;2.10;;;;;;;;;;5098560;28;20199;-65
2022/10/30 10:03:21;;;;;;;2.60;2.40;;;;;;;;;;5098377;28;20294;-65
2022/10/30 10:05:50;;;;;;;2.03;1.83;;;;;;;;;;5097455;28;20231;-65
2022/10/30 10:08:20;;;;;;;2.08;1.92;;;;;;;;;;5098364;28;20262;-65
2022/10/30 10:10:50;;;;;;;2.42;2.22;;;;;;;;;;5097662;28;20341;-65
2022/10/30 10:13:25;;;;;;;2.78;2.40;;;;;;;;;;5097964;28;20203;-65
2022/10/30 10:15:55;;;;;;;2.30;2.08;;;;;;;;;;5097438;28;20265;-65
2022/10/30 10:18:27;;;;;;;3.28;2.20;;;;;;;;;;5098877;28;20493;-65
2022/10/30 10:20:56;;;;;;;3.05;2.17;;;;;;;;;;5097872;28;20204;-65
2022/10/30 10:23:27;;;;;;;2.10;1.90;;;;;;;;;;5097889;28;20288;-65
2022/10/30 10:25:55;;;;;;;3.75;2.30;;;;;;;;;;5097414;28;20195;-65
2022/10/30 10:28:42;;;;;;;2.45;2.03;;;;;;;;;;5098355;28;20322;-66
2022/10/30 10:31:15;;;;;;;3.65;2.15;;;;;;;;;;5098369;28;20527;-65
2022/10/30 10:33:53;;;;;;;2.97;2.42;;;;;;;;;;5098368;28;20656;-65
2022/10/30 10:36:28;;;;;;;2.20;2.05;;;;;;;;;;5097145;28;20196;-65
2022/10/30 10:39:03;;;;;;;3.05;2.20;;;;;;;;;;5097198;28;20281;-65
2022/10/30 10:41:35;;;;;;;2.17;1.98;;;;;;;;;;5097694;28;20235;-65
2022/10/30 10:44:11;;;;;;;2.63;2.17;;;;;;;;;;5098292;28;20239;-65
2022/10/30 10:46:47;;;;;;;2.53;2.28;;;;;;;;;;5097532;28;20294;-65
2022/10/30 10:49:20;;;;;;;3.90;2.42;;;;;;;;;;5097541;28;20293;-65
2022/10/30 10:51:50;;;;;;;4.35;2.70;;;;;;;;;;5097449;28;20522;-65
2022/10/30 10:54:20;;;;;;;3.75;2.70;;;;;;;;;;5096461;28;20249;-65
2022/10/30 10:56:48;;;;;;;2.60;2.40;;;;;;;;;;5096258;28;20191;-65
2022/10/30 10:59:19;;;;;;;3.03;2.40;;;;;;;;;;5097584;28;20298;-65
2022/10/30 11:01:51;;;;;;;2.75;2.40;;;;;;;;;;5095922;28;20222;-65
2022/10/30 11:04:25;;;;;;;2.67;2.30;;;;;;;;;;5096128;28;20207;-65
2022/10/30 11:06:54;;;;;;;3.33;2.20;;;;;;;;;;5096431;28;20196;-66
2022/10/30 11:09:22;;;;;;;2.97;2.40;;;;;;;;;;5097539;28;20542;-65
2022/10/30 11:11:51;;;;;;;3.50;2.30;;;;;;;;;;5096914;28;20762;-65
2022/10/30 11:14:19;;;;;;;4.72;3.00;;;;;;;;;;5096659;28;20566;-65
2022/10/30 11:16:52;;;;;;;3.53;2.78;;;;;;;;;;5096390;28;20235;-65
2022/10/30 11:19:21;;;;;;;3.40;2.28;;;;;;;;;;5096907;28;20230;-65
2022/10/30 11:21:51;;;;;;;3.40;2.72;;;;;;;;;;5095846;28;20200;-65
2022/10/30 11:24:27;;;;;;;3.75;2.40;;;;;;;;;;5096192;28;20211;-65
2022/10/30 11:26:55;;;;;;;3.50;2.83;;;;;;;;;;5096330;28;20240;-65
2022/10/30 11:29:25;;;;;;;3.67;2.70;;;;;;;;;;5096341;28;20222;-65
2022/10/30 11:32:01;;;;;;;3.97;2.70;;;;;;;;;;5095553;28;20265;-65
2022/10/30 11:34:34;;;;;;;3.28;2.40;;;;;;;;;;5097022;28;20211;-65
2022/10/30 11:37:02;;;;;;;2.90;2.60;;;;;;;;;;5096664;28;20239;-65
2022/10/30 11:39:31;;;;;;;5.47;3.05;;;;;;;;;;5096176;28;20249;-65
2022/10/30 11:42:00;;;;;;;3.50;3.00;;;;;;;;;;5096420;28;20203;-65
2022/10/30 11:44:30;;;;;;;3.15;2.40;;;;;;;;;;5095632;28;20577;-66
2022/10/30 11:46:57;;;;;;;3.90;2.78;;;;;;;;;;5095236;28;20278;-65
2022/10/30 11:49:27;;;;;;;3.45;2.50;;;;;;;;;;5095828;28;20292;-65
2022/10/30 11:51:56;;;;;;;4.10;2.40;;;;;;;;;;5094914;28;20272;-65
2022/10/30 11:54:23;;;;;;;3.42;2.70;;;;;;;;;;5094898;28;20265;-65
2022/10/30 11:56:52;;;;;;;3.63;2.75;;;;;;;;;;5094492;28;20204;-65
2022/10/30 11:59:21;;;;;;;3.08;2.70;;;;;;;;;;5095394;28;20196;-65
2022/10/30 12:01:59;;;;;;;4.35;2.65;;;;;;;;;;5095940;28;20235;-65
2022/10/30 12:04:27;;;;;;;3.17;2.80;;;;;;;;;;5096623;28;20298;-65
2022/10/30 12:07:07;;;;;;;4.75;2.97;;;;;;;;;;5095295;28;20203;-65
2022/10/30 12:09:42;;;;;;;4.05;3.03;;;;;;;;;;5096384;28;20219;-65
2022/10/30 12:12:13;;;;;;;4.60;3.13;;;;;;;;;;5096081;28;20295;-65
2022/10/30 12:14:41;;;;;;;3.97;2.95;;;;;;;;;;5095862;28;20680;-65
2022/10/30 12:17:08;;;;;;;4.10;3.20;;;;;;;;;;5095624;28;20289;-65
2022/10/30 12:19:36;;;;;;;4.45;3.13;;;;;;;;;;5096174;28;20660;-65
2022/10/30 12:22:05;;;;;;;4.18;2.80;;;;;;;;;;5095845;28;20688;-65
2022/10/30 12:24:33;;;;;;;4.38;3.10;;;;;;;;;;5094949;28;20226;-65
2022/10/30 12:27:02;;;;;;;3.42;2.50;;;;;;;;;;5098473;28;20281;-65
2022/10/30 12:29:40;;;;;;;5.50;2.90;;;;;;;;;;5099597;28;20253;-65
2022/10/30 12:32:09;;;;;;;5.45;3.17;;;;;;;;;;5099065;28;20586;-65
2022/10/30 12:34:41;;;;;;;6.95;3.10;;;;;;;;;;5099202;28;20582;-65
2022/10/30 12:37:13;;;;;;;4.85;3.35;;;;;;;;;;5099381;28;20306;-65
2022/10/30 12:39:45;;;;;;;5.18;3.25;;;;;;;;;;5099110;28;20294;-65
2022/10/30 12:42:14;;;;;;;3.67;3.10;;;;;;;;;;5099329;28;20664;-65
2022/10/30 12:44:44;;;;;;;4.55;2.80;;;;;;;;;;5099514;28;20498;-65
2022/10/30 12:47:14;;;;;;;3.78;2.40;;;;;;;;;;5098115;28;20196;-65
2022/10/30 12:49:43;;;;;;;5.10;3.10;;;;;;;;;;5099285;28;20314;-65
2022/10/30 12:52:14;;;;;;;2.95;2.40;;;;;;;;;;5099490;28;20589;-65
2022/10/30 12:54:46;;;;;;;4.72;2.83;;;;;;;;;;5097523;28;20257;-65
2022/10/30 12:57:15;;;;;;;5.63;2.90;;;;;;;;;;5098269;28;20231;-65
2022/10/30 12:59:47;;;;;;;4.88;2.90;;;;;;;;;;5088512;28;20249;-65
2022/10/30 13:02:20;;;;;;;4.57;2.67;;;;;;;;;;5099478;28;20273;-65
2022/10/30 13:04:50;;;;;;;4.10;2.70;;;;;;;;;;5098948;28;20231;-65
2022/10/30 13:07:23;;;;;;;6.28;2.80;;;;;;;;;;5099209;28;20203;-65
2022/10/30 13:09:56;;;;;;;3.88;2.50;;;;;;;;;;5099045;28;20810;-65
2022/10/30 13:12:26;;;;;;;4.07;2.92;;;;;;;;;;5098941;28;20261;-65
2022/10/30 13:14:55;;;;;;;5.20;2.97;;;;;;;;;;5098502;28;20199;-65
2022/10/30 13:17:23;;;;;;;5.45;3.05;;;;;;;;;;5098259;28;20318;-65
2022/10/30 13:19:50;;;;;;;4.78;2.88;;;;;;;;;;5097818;28;20196;-65
2022/10/30 13:22:21;;;;;;;4.18;2.70;;;;;;;;;;5098209;28;20199;-65
2022/10/30 13:24:54;;;;;;;5.88;2.67;;;;;;;;;;5098290;28;20533;-65
2022/10/30 13:27:24;;;;;;;5.57;2.63;;;;;;;;;;5098226;28;20223;-65
2022/10/30 13:29:53;;;;;;;5.70;3.10;;;;;;;;;;5081577;28;20215;-65
2022/10/30 13:32:27;;;;;;;3.70;2.67;;;;;;;;;;5097574;28;20455;-66
2022/10/30 13:34:56;;;;;;;4.78;2.78;;;;;;;;;;5097276;28;20199;-65
2022/10/30 13:37:30;;;;;;;3.78;2.80;;;;;;;;;;5097435;28;20302;-65
2022/10/30 13:40:12;;;;;;;4.25;2.63;;;;;;;;;;5097921;28;20203;-65
2022/10/30 13:42:45;;;;;;;5.47;2.65;;;;;;;;;;5097778;28;20234;-65
2022/10/30 13:45:24;;;;;;;4.55;2.60;;;;;;;;;;5087299;28;20199;-65
2022/10/30 13:47:56;;;;;;;3.90;2.63;;;;;;;;;;5097302;28;20288;-65
2022/10/30 13:50:32;;;;;;;3.28;2.50;;;;;;;;;;5096836;28;20207;-65
2022/10/30 13:53:03;;;;;;;4.15;2.58;;;;;;;;;;5097292;28;20309;-66
2022/10/30 13:55:31;;;;;;;4.05;2.53;;;;;;;;;;5096722;28;20692;-65
2022/10/30 13:58:04;;;;;;;4.50;2.85;;;;;;;;;;5097898;28;20253;-65
2022/10/30 14:00:37;;;;;;;5.05;2.88;;;;;;;;;;5097258;28;20207;-65
2022/10/30 14:03:11;;;;;;;3.53;2.35;;;;;;;;;;5097378;28;20203;-65
2022/10/30 14:05:43;;;;;;;4.35;2.60;;;;;;;;;;5096745;28;20293;-65
2022/10/30 14:08:19;;;;;;;4.85;2.90;;;;;;;;;;5096830;28;20223;-65
2022/10/30 14:10:47;;;;;;;4.65;2.83;;;;;;;;;;5097264;28;20289;-65
2022/10/30 14:13:16;;;;;;;4.40;2.78;;;;;;;;;;5096711;28;20271;-65
2022/10/30 14:15:44;;;;;;;5.07;2.72;;;;;;;;;;5096695;28;20208;-65
2022/10/30 14:18:24;;;;;;;6.53;3.60;;;;;;;;;;5097295;28;20306;-65
2022/10/30 14:20:53;;;;;;;6.60;3.20;;;;;;;;;;5095660;28;20271;-65
2022/10/30 14:23:24;;;;;;;4.00;2.97;;;;;;;;;;5096549;28;20257;-65
2022/10/30 14:26:10;;;;;;;5.70;3.35;;;;;;;;;;5096071;28;20231;-66
2022/10/30 14:28:38;;;;;;;6.43;3.38;;;;;;;;;;5096510;28;20212;-65
2022/10/30 14:31:07;;;;;;;6.07;3.47;;;;;;;;;;5096481;28;20228;-65
2022/10/30 14:33:36;;;;;;;7.40;3.40;;;;;;;;;;5095864;28;20200;-65
2022/10/30 14:36:17;;;;;;;7.18;3.85;;;;;;;;;;5096499;28;20280;-65
2022/10/30 14:38:53;;;;;;;6.53;3.15;;;;;;;;;;5096682;28;20642;-65
2022/10/30 14:41:31;;;;;;;7.88;3.53;;;;;;;;;;5096842;28;20612;-65
2022/10/30 14:44:20;;;;;;;6.90;3.53;;;;;;;;;;5096611;28;20209;-65
2022/10/30 14:46:53;;;;;;;5.28;3.30;;;;;;;;;;5090249;28;20286;-65
2022/10/30 14:49:30;;;;;;;5.47;3.28;;;;;;;;;;5095317;28;20257;-65
2022/10/30 14:52:05;;;;;;;6.40;3.00;;;;;;;;;;5095621;28;20284;-65
2022/10/30 14:54:38;;;;;;;8.45;3.45;;;;;;;;;;5095721;28;20195;-65
2022/10/30 14:57:20;;;;;;;7.80;3.40;;;;;;;;;;5095040;28;20257;-65